createdAt,value
2018-03-14T00:01:58.855Z,9.77
2018-03-14T00:04:03.248Z,11.80
2018-03-14T00:06:07.623Z,12.83
2018-03-14T00:08:11.321Z,10.63
2018-03-14T00:10:14.888Z,11.43
2018-03-14T00:12:18.525Z,10.13
2018-03-14T00:14:22.479Z,15.03
2018-03-14T00:16:26.913Z,10.07
2018-03-14T00:18:30.490Z,9.97
2018-03-14T00:20:34.967Z,9.37
2018-03-14T00:22:40.190Z,8.97
2018-03-14T00:24:44.742Z,9.47
2018-03-14T00:26:49.072Z,9.03
2018-03-14T00:28:54.614Z,8.27
2018-03-14T00:30:58.139Z,12.20
2018-03-14T00:33:02.422Z,12.90
2018-03-14T00:35:05.954Z,11.57
2018-03-14T00:37:09.579Z,13.07
2018-03-14T00:39:13.180Z,11.10
2018-03-14T00:41:20.158Z,15.30
2018-03-14T00:43:23.697Z,9.97
2018-03-14T00:45:27.269Z,10.70
2018-03-14T00:47:31.661Z,11.53
2018-03-14T00:49:35.217Z,9.63
2018-03-14T00:51:38.758Z,10.40
2018-03-14T00:53:42.358Z,11.07
2018-03-14T00:55:47.941Z,10.57
2018-03-14T00:57:52.362Z,11.87
2018-03-14T00:59:56.683Z,12.47
2018-03-14T01:02:00.264Z,10.30
2018-03-14T01:04:04.766Z,10.53
2018-03-14T01:06:08.340Z,11.50
2018-03-14T01:08:11.989Z,12.00
2018-03-14T01:10:16.073Z,9.57
2018-03-14T01:12:19.577Z,13.47
2018-03-14T01:14:23.152Z,10.90
2018-03-14T01:16:26.636Z,11.23
2018-03-14T01:18:30.040Z,12.77
2018-03-14T01:20:33.458Z,14.20
2018-03-14T01:22:36.882Z,10.63
2018-03-14T01:24:40.321Z,13.60
2018-03-14T01:26:43.759Z,11.60
2018-03-14T01:28:47.852Z,13.93
2018-03-14T01:30:51.702Z,10.17
2018-03-14T01:32:55.160Z,11.97
2018-03-14T01:34:58.589Z,13.87
2018-03-14T01:37:02.042Z,10.07
2018-03-14T01:39:05.510Z,11.33
2018-03-14T01:41:10.001Z,11.77
2018-03-14T01:43:13.827Z,11.07
2018-03-14T01:45:17.361Z,12.50
2018-03-14T01:47:20.791Z,12.40
2018-03-14T01:49:24.248Z,10.40
2018-03-14T01:51:27.712Z,12.83
2018-03-14T01:53:31.165Z,12.33
2018-03-14T01:55:35.450Z,12.60
2018-03-14T01:57:39.675Z,10.80
2018-03-14T01:59:44.179Z,10.57
2018-03-14T02:01:47.729Z,16.37
2018-03-14T02:03:52.139Z,12.50
2018-03-14T02:05:55.619Z,12.17
2018-03-14T02:08:00.235Z,12.13
2018-03-14T02:10:03.691Z,13.70
2018-03-14T02:12:07.921Z,13.07
2018-03-14T02:14:12.207Z,14.90
2018-03-14T02:16:17.639Z,14.27
2018-03-14T02:18:21.118Z,11.97
2018-03-14T02:20:25.169Z,14.30
2018-03-14T02:22:28.647Z,12.57
2018-03-14T02:24:32.830Z,13.70
2018-03-14T02:26:36.771Z,14.27
2018-03-14T02:28:41.255Z,17.13
2018-03-14T02:30:44.708Z,14.03
2018-03-14T02:32:49.134Z,14.80
2018-03-14T02:34:54.748Z,11.27
2018-03-14T02:37:02.304Z,12.73
2018-03-14T02:39:05.831Z,13.90
2018-03-14T02:41:09.251Z,15.67
2018-03-14T02:43:12.760Z,12.93
2018-03-14T02:45:18.882Z,19.67
2018-03-14T02:47:22.409Z,19.10
2018-03-14T02:49:26.608Z,11.80
2018-03-14T02:51:30.080Z,13.33
2018-03-14T02:53:34.663Z,11.53
2018-03-14T02:55:39.181Z,15.93
2018-03-14T02:57:42.632Z,14.93
2018-03-14T02:59:46.525Z,12.83
2018-03-14T03:01:49.955Z,14.47
2018-03-14T03:03:54.305Z,16.30
2018-03-14T03:05:59.572Z,10.23
2018-03-14T03:08:03.906Z,14.47
2018-03-14T03:10:07.335Z,12.57
2018-03-14T03:12:10.814Z,16.27
2018-03-14T03:14:14.269Z,14.53
2018-03-14T03:16:18.492Z,15.93
2018-03-14T03:18:21.992Z,15.13
2018-03-14T03:20:27.731Z,14.27
2018-03-14T03:22:31.243Z,13.77
2018-03-14T03:24:35.406Z,14.87
2018-03-14T03:26:40.805Z,16.80
2018-03-14T03:28:44.304Z,12.87
2018-03-14T03:30:47.802Z,13.30
2018-03-14T03:32:52.164Z,14.63
2018-03-14T03:34:56.725Z,14.77
2018-03-14T03:37:00.230Z,14.30
2018-03-14T03:39:03.730Z,16.87
2018-03-14T03:41:07.196Z,17.83
2018-03-14T03:43:11.383Z,14.77
2018-03-14T03:45:14.836Z,15.23
2018-03-14T03:47:19.050Z,17.73
2018-03-14T03:49:22.483Z,14.83
2018-03-14T03:51:26.233Z,14.33
2018-03-14T03:53:29.671Z,14.70
2018-03-14T03:55:33.099Z,15.63
2018-03-14T03:57:37.414Z,14.87
2018-03-14T03:59:41.638Z,16.87
2018-03-14T04:01:45.070Z,14.73
2018-03-14T04:03:48.587Z,14.93
2018-03-14T04:05:52.777Z,16.50
2018-03-14T04:07:57.368Z,12.40
2018-03-14T04:10:02.319Z,16.47
2018-03-14T04:12:05.784Z,15.67
2018-03-14T04:14:09.282Z,16.97
2018-03-14T04:16:12.733Z,14.00
2018-03-14T04:18:16.980Z,16.17
2018-03-14T04:20:20.429Z,15.53
2018-03-14T04:22:23.895Z,16.20
2018-03-14T04:24:27.369Z,12.73
2018-03-14T04:26:30.919Z,14.30
2018-03-14T04:28:34.393Z,12.43
2018-03-14T04:30:39.591Z,14.40
2018-03-14T04:32:43.368Z,12.97
2018-03-14T04:34:47.549Z,13.27
2018-03-14T04:36:50.990Z,12.90
2018-03-14T04:38:56.258Z,16.67
2018-03-14T04:41:00.674Z,14.70
2018-03-14T04:43:04.154Z,13.87
2018-03-14T04:45:07.636Z,14.17
2018-03-14T04:47:11.061Z,12.20
2018-03-14T04:49:14.506Z,12.53
2018-03-14T04:51:17.988Z,14.00
2018-03-14T04:53:22.164Z,16.70
2018-03-14T04:55:25.615Z,15.93
2018-03-14T04:57:29.053Z,14.90
2018-03-14T04:59:32.482Z,13.60
2018-03-14T05:01:35.911Z,12.07
2018-03-14T05:03:39.338Z,16.80
2018-03-14T05:05:43.296Z,14.83
2018-03-14T05:07:47.721Z,17.00
2018-03-14T05:09:51.916Z,13.77
2018-03-14T05:11:55.371Z,18.80
2018-03-14T05:13:58.862Z,15.27
2018-03-14T05:16:02.300Z,15.97
2018-03-14T05:18:06.776Z,17.43
2018-03-14T05:20:10.446Z,17.37
2018-03-14T05:22:14.842Z,16.27
2018-03-14T05:24:18.332Z,16.20
2018-03-14T05:26:22.978Z,14.53
2018-03-14T05:28:26.431Z,16.63
2018-03-14T05:30:31.814Z,15.80
2018-03-14T05:32:35.218Z,15.50
2018-03-14T05:34:38.734Z,17.90
2018-03-14T05:36:42.954Z,19.17
2018-03-14T05:38:48.121Z,18.43
2018-03-14T05:40:51.610Z,19.10
2018-03-14T05:42:55.153Z,24.33
2018-03-14T05:44:58.603Z,15.57
2018-03-14T05:47:02.191Z,18.50
2018-03-14T05:49:06.870Z,16.93
2018-03-14T05:51:10.332Z,14.70
2018-03-14T05:53:13.792Z,16.13
2018-03-14T05:55:18.003Z,16.63
2018-03-14T05:57:22.728Z,15.40
2018-03-14T05:59:28.950Z,15.07
2018-03-14T06:01:32.486Z,19.60
2018-03-14T06:03:36.711Z,18.17
2018-03-14T06:05:40.164Z,22.40
2018-03-14T06:07:43.598Z,21.33
2018-03-14T06:09:47.738Z,19.93
2018-03-14T06:11:52.120Z,18.97
2018-03-14T06:13:56.736Z,23.40
2018-03-14T06:16:00.207Z,13.20
2018-03-14T06:18:03.640Z,20.60
2018-03-14T06:20:08.120Z,17.70
2018-03-14T06:22:11.638Z,18.60
2018-03-14T06:24:15.079Z,17.50
2018-03-14T06:26:18.521Z,30.17
2018-03-14T06:28:22.735Z,22.43
2018-03-14T06:30:26.252Z,24.77
2018-03-14T06:32:29.762Z,23.00
2018-03-14T06:34:33.194Z,20.23
2018-03-14T06:36:38.227Z,22.10
2018-03-14T06:38:42.445Z,25.23
2018-03-14T06:40:46.658Z,22.37
2018-03-14T06:42:50.140Z,23.03
2018-03-14T06:44:53.561Z,23.63
2018-03-14T06:46:57.442Z,26.83
2018-03-14T06:49:01.247Z,25.50
2018-03-14T06:51:05.823Z,25.70
2018-03-14T06:53:09.289Z,28.40
2018-03-14T06:55:12.759Z,25.37
2018-03-14T06:57:17.051Z,27.63
2018-03-14T06:59:32.404Z,26.53
2018-03-14T07:01:47.666Z,22.17
2018-03-14T07:04:02.914Z,24.17
2018-03-14T07:06:11.405Z,27.40
2018-03-14T07:08:15.208Z,33.13
2018-03-14T07:10:18.704Z,36.63
2018-03-14T07:12:22.140Z,50.93
2018-03-14T07:14:25.593Z,34.00
2018-03-14T07:16:29.813Z,33.37
2018-03-14T07:18:34.014Z,28.53
2018-03-14T07:20:38.199Z,30.87
2018-03-14T07:22:42.340Z,30.03
2018-03-14T07:24:46.526Z,26.10
2018-03-14T07:26:50.680Z,30.27
2018-03-14T07:28:54.151Z,28.70
2018-03-14T07:30:57.548Z,22.80
2018-03-14T07:33:01.723Z,24.27
2018-03-14T07:35:05.122Z,25.83
2018-03-14T07:37:08.488Z,22.70
2018-03-14T07:39:11.909Z,26.80
2018-03-14T07:41:15.276Z,23.10
2018-03-14T07:43:18.681Z,31.47
2018-03-14T07:45:22.120Z,25.53
2018-03-14T07:47:26.272Z,26.23
2018-03-14T07:49:29.644Z,30.77
2018-03-14T07:51:33.015Z,31.50
2018-03-14T07:53:37.161Z,26.03
2018-03-14T07:55:40.569Z,25.57
2018-03-14T07:57:43.967Z,24.50
2018-03-14T07:59:47.678Z,26.80
2018-03-14T08:01:51.051Z,28.13
2018-03-14T08:03:54.450Z,28.60
2018-03-14T08:05:57.873Z,20.73
2018-03-14T08:08:01.238Z,23.90
2018-03-14T08:10:04.684Z,23.33
2018-03-14T08:12:08.816Z,25.70
2018-03-14T08:14:12.198Z,20.30
2018-03-14T08:16:15.847Z,23.80
2018-03-14T08:18:19.217Z,23.43
2018-03-14T08:20:23.087Z,23.87
2018-03-14T08:22:26.436Z,20.73
2018-03-14T08:24:29.842Z,20.67
2018-03-14T08:26:33.253Z,23.70
2018-03-14T08:28:36.661Z,22.37
2018-03-14T08:30:40.124Z,18.90
2018-03-14T08:32:43.576Z,27.27
2018-03-14T08:34:46.978Z,25.47
2018-03-14T08:36:50.404Z,22.77
2018-03-14T08:38:54.548Z,20.93
2018-03-14T08:40:57.916Z,23.43
2018-03-14T08:43:02.051Z,23.60
2018-03-14T08:45:05.411Z,20.30
2018-03-14T08:47:08.806Z,20.03
2018-03-14T08:49:12.225Z,20.57
2018-03-14T08:51:15.622Z,20.67
2018-03-14T08:53:19.021Z,21.10
2018-03-14T08:55:22.417Z,24.50
2018-03-14T08:57:26.045Z,17.77
2018-03-14T08:59:29.507Z,19.60
2018-03-14T09:01:33.617Z,18.93
2018-03-14T09:03:37.015Z,19.50
2018-03-14T09:05:40.408Z,18.47
2018-03-14T09:07:43.826Z,19.73
2018-03-14T09:09:47.228Z,19.87
2018-03-14T09:11:51.410Z,16.47
2018-03-14T09:13:54.832Z,20.00
2018-03-14T09:15:58.229Z,17.93
2018-03-14T09:18:01.669Z,18.03
2018-03-14T09:20:05.080Z,21.40
2018-03-14T09:22:08.506Z,22.07
2018-03-14T09:24:12.916Z,18.47
2018-03-14T09:26:16.290Z,23.93
2018-03-14T09:28:19.754Z,16.60
2018-03-14T09:30:23.153Z,18.07
2018-03-14T09:32:26.565Z,17.37
2018-03-14T09:34:29.997Z,16.10
2018-03-14T09:36:34.171Z,18.73
2018-03-14T09:38:37.566Z,20.50
2018-03-14T09:40:40.957Z,19.50
2018-03-14T09:42:44.352Z,16.77
2018-03-14T09:44:47.766Z,17.23
2018-03-14T09:46:51.163Z,16.90
2018-03-14T09:48:54.555Z,15.73
2018-03-14T09:50:57.929Z,16.27
2018-03-14T09:53:01.321Z,16.03
2018-03-14T09:55:04.744Z,19.67
2018-03-14T09:57:08.962Z,13.80
2018-03-14T09:59:13.161Z,15.40
2018-03-14T10:01:16.547Z,17.67
2018-03-14T10:03:19.934Z,16.80
2018-03-14T10:05:24.242Z,15.03
2018-03-14T10:07:27.661Z,18.60
2018-03-14T10:09:31.828Z,14.60
2018-03-14T10:11:35.248Z,12.23
2018-03-14T10:13:38.670Z,16.63
2018-03-14T10:15:42.720Z,14.10
2018-03-14T10:17:46.172Z,15.40
2018-03-14T10:19:49.587Z,17.00
2018-03-14T10:21:56.540Z,12.33
2018-03-14T10:23:59.970Z,12.23
2018-03-14T10:26:03.467Z,15.37
2018-03-14T10:28:06.871Z,15.73
2018-03-14T10:30:10.296Z,13.20
2018-03-14T10:32:15.032Z,12.23
2018-03-14T10:34:19.933Z,14.13
2018-03-14T10:36:23.438Z,14.23
2018-03-14T10:38:27.602Z,14.47
2018-03-14T10:40:31.087Z,14.47
2018-03-14T10:42:34.508Z,13.43
2018-03-14T10:44:38.469Z,13.93
2018-03-14T10:46:41.861Z,14.70
2018-03-14T10:48:45.254Z,13.37
2018-03-14T10:50:48.715Z,16.13
2018-03-14T10:52:52.115Z,13.17
2018-03-14T10:54:56.301Z,12.53
2018-03-14T10:56:59.688Z,11.70
2018-03-14T10:59:03.087Z,12.37
2018-03-14T11:01:10.034Z,9.93
2018-03-14T11:03:18.194Z,10.60
2018-03-14T11:05:21.589Z,11.33
2018-03-14T11:07:25.775Z,10.03
2018-03-14T11:09:30.043Z,11.30
2018-03-14T11:11:33.429Z,13.47
2018-03-14T11:13:36.833Z,10.93
2018-03-14T11:15:40.209Z,11.53
2018-03-14T11:17:44.337Z,10.80
2018-03-14T11:19:47.744Z,10.17
2018-03-14T11:21:51.090Z,11.83
2018-03-14T11:23:55.305Z,13.63
2018-03-14T11:25:59.454Z,10.07
2018-03-14T11:28:03.091Z,10.77
2018-03-14T11:30:06.979Z,17.77
2018-03-14T11:32:10.383Z,9.77
2018-03-14T11:34:13.765Z,10.70
2018-03-14T11:36:17.157Z,9.83
2018-03-14T11:38:20.545Z,12.50
2018-03-14T11:40:23.967Z,11.93
2018-03-14T11:42:27.361Z,11.80
2018-03-14T11:44:31.553Z,9.67
2018-03-14T11:46:34.998Z,12.93
2018-03-14T11:48:38.405Z,12.53
2018-03-14T11:50:41.804Z,11.00
2018-03-14T11:52:45.234Z,10.83
2018-03-14T11:54:48.851Z,15.70
2018-03-14T11:56:53.002Z,11.97
2018-03-14T11:58:56.408Z,11.93
2018-03-14T12:00:59.822Z,10.20
2018-03-14T12:03:03.214Z,12.93
2018-03-14T12:05:06.601Z,8.70
2018-03-14T12:07:10.030Z,10.90
2018-03-14T12:09:14.180Z,14.30
2018-03-14T12:11:17.549Z,10.67
2018-03-14T12:13:20.956Z,10.77
2018-03-14T12:15:24.470Z,9.63
2018-03-14T12:17:28.190Z,10.57
2018-03-14T12:19:31.613Z,10.43
2018-03-14T12:21:36.027Z,10.20
2018-03-14T12:23:40.332Z,12.03
2018-03-14T12:25:43.888Z,10.97
2018-03-14T12:27:47.430Z,10.20
2018-03-14T12:29:52.723Z,14.40
2018-03-14T12:31:57.049Z,13.50
2018-03-14T12:34:01.338Z,11.33
2018-03-14T12:36:05.943Z,15.70
2018-03-14T12:38:09.756Z,11.83
2018-03-14T12:40:13.908Z,8.70
2018-03-14T12:42:19.184Z,10.53
2018-03-14T12:44:22.905Z,11.30
2018-03-14T12:46:26.586Z,9.70
2018-03-14T12:48:30.099Z,12.90
2018-03-14T12:50:34.289Z,12.53
2018-03-14T12:52:41.301Z,9.60
2018-03-14T12:54:44.783Z,10.07
2018-03-14T12:56:48.400Z,10.37
2018-03-14T12:58:52.580Z,8.60
2018-03-14T13:00:55.991Z,9.63
2018-03-14T13:02:59.390Z,9.73
2018-03-14T13:05:02.804Z,10.50
2018-03-14T13:07:06.409Z,9.57
2018-03-14T13:09:10.796Z,9.20
2018-03-14T13:11:14.415Z,9.70
2018-03-14T13:13:17.920Z,11.73
2018-03-14T13:15:21.376Z,10.50
2018-03-14T13:17:25.256Z,9.97
2018-03-14T13:19:29.378Z,8.43
2018-03-14T13:21:32.788Z,12.93
2018-03-14T13:23:36.398Z,9.63
2018-03-14T13:25:40.600Z,9.00
2018-03-14T13:27:44.452Z,7.77
2018-03-14T13:29:48.696Z,7.87
2018-03-14T13:31:52.263Z,9.83
2018-03-14T13:33:55.660Z,8.20
2018-03-14T13:35:59.110Z,7.83
2018-03-14T13:38:04.473Z,11.37
2018-03-14T13:40:07.890Z,7.97
2018-03-14T13:42:11.318Z,7.07
2018-03-14T13:44:14.747Z,9.97
2018-03-14T13:46:18.227Z,9.37
2018-03-14T13:48:21.626Z,10.20
2018-03-14T13:50:25.056Z,8.83
2018-03-14T13:52:28.510Z,7.83
2018-03-14T13:54:31.912Z,7.60
2018-03-14T13:56:39.392Z,11.17
2018-03-14T13:58:43.602Z,6.77
2018-03-14T14:00:49.558Z,13.20
2018-03-14T14:02:53.742Z,9.23
2018-03-14T14:04:57.915Z,6.87
2018-03-14T14:07:01.318Z,7.30
2018-03-14T14:09:04.817Z,9.90
2018-03-14T14:11:08.234Z,11.20
2018-03-14T14:13:11.656Z,7.57
2018-03-14T14:15:15.978Z,6.60
2018-03-14T14:17:20.347Z,6.40
2018-03-14T14:19:23.903Z,7.57
2018-03-14T14:21:27.351Z,6.37
2018-03-14T14:23:30.800Z,7.63
2018-03-14T14:25:34.320Z,7.77
2018-03-14T14:27:37.736Z,15.30
2018-03-14T14:29:41.219Z,7.80
2018-03-14T14:31:44.674Z,10.67
2018-03-14T14:33:48.128Z,5.73
2018-03-14T14:35:51.489Z,8.87
2018-03-14T14:37:54.843Z,8.40
2018-03-14T14:39:58.254Z,9.40
2018-03-14T14:42:01.695Z,17.70
2018-03-14T14:44:05.936Z,10.20
2018-03-14T14:46:09.451Z,12.47
2018-03-14T14:48:12.879Z,6.33
2018-03-14T14:50:16.320Z,6.30
2018-03-14T14:52:19.970Z,6.10
2018-03-14T14:54:23.312Z,10.20
2018-03-14T14:56:28.115Z,4.70
2018-03-14T14:58:31.452Z,7.20
2018-03-14T15:00:34.774Z,6.20
2018-03-14T15:02:38.149Z,7.33
2018-03-14T15:04:43.223Z,7.23
2018-03-14T15:06:46.556Z,8.30
2018-03-14T15:08:49.890Z,9.30
2018-03-14T15:10:53.820Z,9.40
2018-03-14T15:12:57.245Z,7.00
2018-03-14T15:15:00.604Z,5.40
2018-03-14T15:17:03.943Z,5.93
2018-03-14T15:19:09.417Z,8.27
2018-03-14T15:21:15.336Z,7.83
2018-03-14T15:23:19.775Z,6.47
2018-03-14T15:25:23.395Z,12.10
2018-03-14T15:27:27.609Z,9.10
2018-03-14T15:29:30.944Z,10.03
2018-03-14T15:31:34.319Z,10.53
2018-03-14T15:33:38.433Z,7.23
2018-03-14T15:35:42.519Z,9.57
2018-03-14T15:37:45.852Z,9.13
2018-03-14T15:39:49.193Z,8.13
2018-03-14T15:41:52.703Z,14.43
2018-03-14T15:43:56.063Z,7.80
2018-03-14T15:45:59.412Z,10.07
2018-03-14T15:48:02.741Z,10.20
2018-03-14T15:50:06.063Z,7.83
2018-03-14T15:52:10.192Z,8.03
2018-03-14T15:54:14.311Z,8.47
2018-03-14T15:56:17.692Z,10.97
2018-03-14T15:58:21.921Z,8.97
2018-03-14T16:00:25.485Z,8.37
2018-03-14T16:02:29.141Z,8.73
2018-03-14T16:04:32.462Z,8.47
2018-03-14T16:06:36.677Z,13.10
2018-03-14T16:08:39.997Z,9.00
2018-03-14T16:10:43.564Z,9.03
2018-03-14T16:12:47.282Z,13.27
2018-03-14T16:14:51.369Z,9.07
2018-03-14T16:16:56.253Z,11.93
2018-03-14T16:19:00.106Z,9.60
2018-03-14T16:21:03.453Z,6.93
2018-03-14T16:23:08.726Z,11.00
2018-03-14T16:25:12.112Z,7.97
2018-03-14T16:27:15.507Z,7.33
2018-03-14T16:29:18.949Z,8.90
2018-03-14T16:31:22.464Z,8.63
2018-03-14T16:33:26.097Z,6.70
2018-03-14T16:35:29.515Z,8.80
2018-03-14T16:37:32.876Z,13.07
2018-03-14T16:39:36.220Z,8.40
2018-03-14T16:41:39.843Z,8.20
2018-03-14T16:43:43.498Z,8.03
2018-03-14T16:45:47.593Z,8.83
2018-03-14T16:47:51.902Z,6.97
2018-03-14T16:49:55.235Z,8.43
2018-03-14T16:51:58.564Z,6.63
2018-03-14T16:54:01.888Z,11.80
2018-03-14T16:56:06.155Z,11.03
2018-03-14T16:58:09.590Z,6.43
2018-03-14T17:00:13.159Z,7.20
2018-03-14T17:02:16.504Z,10.90
2018-03-14T17:04:19.843Z,6.70
2018-03-14T17:06:24.344Z,9.40
2018-03-14T17:08:27.681Z,8.00
2018-03-14T17:10:32.430Z,8.27
2018-03-14T17:12:35.825Z,8.43
2018-03-14T17:14:39.132Z,9.60
2018-03-14T17:16:42.787Z,8.20
2018-03-14T17:18:46.944Z,7.47
2018-03-14T17:20:50.335Z,9.60
2018-03-14T17:22:56.366Z,14.40
2018-03-14T17:25:01.390Z,11.07
2018-03-14T17:27:04.839Z,7.57
2018-03-14T17:29:11.862Z,8.77
2018-03-14T17:31:18.007Z,9.23
2018-03-14T17:33:23.116Z,11.03
2018-03-14T17:35:28.865Z,10.83
2018-03-14T17:37:34.336Z,7.43
2018-03-14T17:39:43.276Z,9.63
2018-03-14T17:41:48.052Z,11.90
2018-03-14T17:43:51.842Z,8.90
2018-03-14T17:45:56.717Z,8.80
2018-03-14T17:48:01.232Z,8.07
2018-03-14T17:50:05.071Z,9.40
2018-03-14T17:52:10.567Z,11.20
2018-03-14T17:54:15.113Z,9.07
2018-03-14T17:56:20.136Z,11.13
2018-03-14T17:58:24.686Z,8.83
2018-03-14T18:00:28.431Z,8.47
2018-03-14T18:02:32.488Z,12.83
2018-03-14T18:04:36.278Z,8.30
2018-03-14T18:06:40.990Z,9.03
2018-03-14T18:08:45.811Z,10.77
2018-03-14T18:10:50.550Z,11.93
2018-03-14T18:12:54.731Z,9.00
2018-03-14T18:15:00.162Z,8.80
2018-03-14T18:17:06.123Z,10.57
2018-03-14T18:19:12.352Z,7.97
2018-03-14T18:21:15.813Z,8.90
2018-03-14T18:23:19.647Z,9.60
2018-03-14T18:27:37.472Z,13.50
2018-03-14T18:29:41.819Z,13.83
2018-03-14T18:31:47.312Z,9.10
2018-03-14T18:33:55.345Z,11.53
2018-03-14T18:36:03.041Z,11.20
2018-03-14T18:38:07.831Z,12.03
2018-03-14T18:40:13.560Z,10.50
2018-03-14T18:42:18.320Z,11.63
2018-03-14T18:44:24.511Z,8.97
2018-03-14T18:46:29.231Z,10.90
2018-03-14T18:48:34.727Z,12.30
2018-03-14T18:50:40.187Z,13.93
2018-03-14T18:52:46.092Z,14.40
2018-03-14T18:54:52.274Z,12.60
2018-03-14T18:56:57.000Z,11.90
2018-03-14T18:59:04.561Z,12.83
2018-03-14T19:01:09.815Z,14.70
2018-03-14T19:03:16.234Z,11.13
2018-03-14T19:05:23.061Z,16.50
2018-03-14T19:07:28.175Z,16.23
2018-03-14T19:09:32.362Z,14.33
2018-03-14T19:11:38.481Z,14.83
2018-03-14T19:13:47.417Z,15.63
2018-03-14T19:15:53.814Z,14.23
2018-03-14T19:18:00.739Z,17.57
2018-03-14T19:20:05.884Z,13.43
2018-03-14T19:22:11.396Z,12.43
2018-03-14T19:24:17.801Z,11.57
2018-03-14T19:26:22.629Z,22.17
2018-03-14T19:28:27.511Z,10.50
2018-03-14T19:30:33.575Z,15.70
2018-03-14T19:32:38.027Z,12.30
2018-03-14T19:34:42.811Z,13.47
2018-03-14T19:36:48.293Z,17.50
2018-03-14T19:38:54.952Z,12.37
2018-03-14T19:41:00.315Z,13.77
2018-03-14T19:43:05.468Z,11.77
2018-03-14T19:45:11.173Z,14.57
2018-03-14T19:47:15.950Z,14.50
2018-03-14T19:49:21.423Z,14.30
2018-03-14T19:51:27.273Z,14.97
2018-03-14T19:53:33.575Z,14.47
2018-03-14T19:55:40.211Z,16.03
2018-03-14T19:57:45.047Z,12.70
2018-03-14T19:59:49.991Z,13.50
2018-03-14T20:01:55.626Z,11.17
2018-03-14T20:04:00.387Z,12.27
2018-03-14T20:06:05.552Z,13.60
2018-03-14T20:08:11.554Z,13.30
2018-03-14T20:10:17.165Z,11.97
2018-03-14T20:12:24.041Z,14.47
2018-03-14T20:14:29.632Z,14.30
2018-03-14T20:16:36.116Z,14.30
2018-03-14T20:18:43.814Z,14.13
2018-03-14T20:20:49.681Z,13.87
2018-03-14T20:22:56.400Z,12.47
2018-03-14T20:25:01.392Z,12.87
2018-03-14T20:27:07.844Z,14.50
2018-03-14T20:29:14.332Z,9.43
2018-03-14T20:31:19.305Z,11.17
2018-03-14T20:33:24.519Z,11.17
2018-03-14T20:35:29.402Z,14.93
2018-03-14T20:37:35.009Z,12.17
2018-03-14T20:39:40.215Z,10.33
2018-03-14T20:41:47.445Z,11.20
2018-03-14T20:43:53.374Z,15.27
2018-03-14T20:45:58.404Z,11.27
2018-03-14T20:48:04.504Z,11.00
2018-03-14T20:50:14.453Z,13.50
2018-03-14T20:52:21.226Z,22.43
2018-03-14T20:54:26.900Z,10.90
2018-03-14T20:56:31.821Z,9.33
2018-03-14T20:58:37.710Z,10.63
2018-03-14T21:00:43.445Z,10.57
2018-03-14T21:02:48.466Z,11.40
2018-03-14T21:04:53.221Z,15.97
2018-03-14T21:06:59.733Z,15.53
2018-03-14T21:09:05.271Z,13.53
2018-03-14T21:11:10.827Z,10.37
2018-03-14T21:13:17.237Z,10.60
2018-03-14T21:15:22.784Z,10.43
2018-03-14T21:17:27.883Z,10.77
2018-03-14T21:19:33.945Z,12.93
2018-03-14T21:21:38.555Z,9.50
2018-03-14T21:23:44.706Z,9.03
2018-03-14T21:25:49.698Z,10.90
2018-03-14T21:27:55.905Z,9.57
2018-03-14T21:30:01.948Z,12.87
2018-03-14T21:32:07.832Z,15.83
2018-03-14T21:34:12.288Z,17.63
2018-03-14T21:36:17.846Z,11.17
2018-03-14T21:38:24.254Z,10.97
2018-03-14T21:40:30.435Z,8.90
2018-03-14T21:42:35.469Z,15.37
2018-03-14T21:44:40.509Z,11.90
2018-03-14T21:46:45.334Z,17.07
2018-03-14T21:48:50.182Z,9.30
2018-03-14T21:50:56.449Z,12.23
2018-03-14T21:53:01.830Z,10.07
2018-03-14T21:55:08.304Z,14.30
2018-03-14T21:57:19.181Z,11.63
2018-03-14T21:59:24.014Z,11.93
2018-03-14T22:01:29.124Z,11.30
2018-03-14T22:03:35.282Z,12.83
2018-03-14T22:05:41.218Z,13.97
2018-03-14T22:07:48.158Z,10.40
2018-03-14T22:09:54.283Z,11.97
2018-03-14T22:12:00.085Z,14.60
2018-03-14T22:14:05.189Z,13.30
2018-03-14T22:16:10.094Z,14.50
2018-03-14T22:18:14.538Z,11.17
2018-03-14T22:20:19.543Z,12.67
2018-03-14T22:22:25.891Z,12.20
2018-03-14T22:24:31.204Z,12.40
2018-03-14T22:26:37.190Z,13.83
2018-03-14T22:28:41.123Z,10.97
2018-03-14T22:30:44.490Z,16.70
2018-03-14T22:32:48.981Z,24.10
2018-03-14T22:34:52.300Z,17.90
2018-03-14T22:36:55.715Z,14.77
2018-03-14T22:38:59.064Z,13.80
2018-03-14T22:41:02.457Z,18.20
2018-03-14T22:43:06.554Z,18.20
2018-03-14T22:45:09.916Z,19.13
2018-03-14T22:47:14.091Z,14.70
2018-03-14T22:49:17.432Z,14.00
2018-03-14T22:51:21.983Z,13.27
2018-03-14T22:53:26.066Z,14.80
2018-03-14T22:55:30.618Z,13.80
2018-03-14T22:57:33.971Z,14.93
2018-03-14T22:59:38.171Z,16.83
2018-03-14T23:01:42.078Z,14.30
2018-03-14T23:03:45.591Z,15.30
2018-03-14T23:05:49.682Z,13.37
2018-03-14T23:07:53.076Z,14.63
2018-03-14T23:09:56.401Z,13.10
2018-03-14T23:11:59.736Z,13.83
2018-03-14T23:14:03.085Z,13.73
2018-03-14T23:16:06.403Z,12.33
2018-03-14T23:18:09.831Z,13.50
2018-03-14T23:20:13.236Z,13.70
2018-03-14T23:22:16.975Z,14.00
2018-03-14T23:24:20.368Z,13.77
2018-03-14T23:26:23.856Z,14.47
2018-03-14T23:28:27.250Z,13.60
2018-03-14T23:30:30.577Z,15.30
2018-03-14T23:32:34.451Z,13.30
2018-03-14T23:34:38.627Z,15.83
2018-03-14T23:36:41.966Z,15.07
2018-03-14T23:38:45.275Z,14.40
2018-03-14T23:40:48.614Z,13.30
2018-03-14T23:42:53.185Z,16.63
2018-03-14T23:44:56.565Z,12.77
2018-03-14T23:46:59.889Z,16.27
2018-03-14T23:49:04.033Z,15.57
2018-03-14T23:51:07.347Z,14.80
2018-03-14T23:53:10.682Z,16.60
2018-03-14T23:55:14.045Z,16.33
2018-03-14T23:57:17.598Z,14.50
2018-03-14T23:59:20.926Z,20.37
